Nichioh Maru — JD3267 — position and weather

sailwx.info

Track history (hours):
 
Tides and Currents Weather Stations Pressure Air Temp Water Temp Dewpoint Dewpoint Depression Visibility Wind Speed Wind Dir Waves Ship Positions

Nichioh Maru

Last reported at 2015-Mar-01 12:33 UTC. Time now 2015-Mar-02 11:13 UTC.
Position N 34°60' E 139°35'.

Length 170 m; draft 6.5 m.

Type: Cargo ship. MMSI: 431003232.

Date/timePositionNaut miles runAvg speedWind from/ knotsBaromVisibWave heightAir tempDewpointWater temp
2015-Mar-01 12:33N 34°60' E 139°35'1716.9
2015-Mar-01 11:34N 35°14' E 139°46'1313.2
2015-Mar-01 10:33N 35°27' E 139°46'3 3.1
2015-Mar-01 09:31N 35°30' E 139°46'0 0.0
2015-Mar-01 08:31N 35°30' E 139°46'0 0.0
2015-Mar-01 07:28N 35°30' E 139°46'0 0.0
2015-Mar-01 06:28N 35°30' E 139°46'0 0.0
2015-Mar-01 05:31N 35°30' E 139°46'3 3.3
2015-Mar-01 04:34N 35°29' E 139°42'10 9.9
2015-Mar-01 03:33N 35°19' E 139°43'3 3.0
2015-Mar-01 02:33N 35°19' E 139°39'0 0.0
2015-Mar-01 01:33N 35°19' E 139°39'0 0.0
2015-Mar-01 00:33N 35°19' E 139°39'0 0.0
2015-Feb-28 23:33N 35°19' E 139°39'0 0.0
2015-Feb-28 22:33N 35°19' E 139°39'6 6.0
2015-Feb-28 21:34N 35°17' E 139°46'1211.6
2015-Feb-28 20:33N 35°05' E 139°43'24117.2
2015-Feb-28 06:33N 34°07' E 134°59'2121.3
2015-Feb-28 05:33N 34°28' E 135°02'224 4.7
2015-Feb-26 05:27N 34°60' E 139°32'1618.3
2015-Feb-26 04:34N 35°11' E 139°46'9 9.3
2015-Feb-26 03:33N 35°19' E 139°39'0 0.0
2015-Feb-26 02:32N 35°19' E 139°39'0 0.0
2015-Feb-26 01:32N 35°19' E 139°39'0 0.0
2015-Feb-26 00:32N 35°19' E 139°39'0 0.0
2015-Feb-25 22:15N 35°19' E 139°39'7 9.7
2015-Feb-25 21:31N 35°15' E 139°47'1212.4
2015-Feb-25 20:33N 35°04' E 139°43'1514.6
2015-Feb-25 19:33N 34°55' E 139°29'23017.2
2015-Feb-25 06:12N 33°57' E 134°59'1520.9
2015-Feb-25 05:30N 34°12' E 134°59'1920.1
2015-Feb-25 04:33N 34°30' E 135°02'1211.8
2015-Feb-25 03:33N 34°33' E 134°48'  
2015-Feb-22 23:25N 34°36' E 134°54'1011.3
2015-Feb-22 22:33N 34°34' E 135°06'1414.2
2015-Feb-22 21:33N 34°21' E 135°01'1414.1
2015-Feb-22 20:33N 34°06' E 135°01'229 7.1
2015-Feb-21 12:14N 35°00' E 139°31'1217.9
2015-Feb-21 11:32N 35°07' E 139°43'1212.4
2015-Feb-21 10:34N 35°19' E 139°43'1111.3
2015-Feb-21 09:34N 35°30' E 139°46'0 0.0
2015-Feb-21 08:31N 35°30' E 139°46'0 0.0
2015-Feb-21 07:31N 35°30' E 139°46'0 0.0
2015-Feb-21 06:31N 35°30' E 139°46'0 0.0
2015-Feb-21 05:28N 35°30' E 139°46'4 4.1
2015-Feb-21 04:33N 35°28' E 139°42'8 8.5
2015-Feb-21 03:34N 35°20' E 139°44'4 4.4
2015-Feb-21 02:33N 35°19' E 139°39'0 0.0
2015-Feb-21 01:31N 35°19' E 139°39'0 0.0
2015-Feb-21 00:31N 35°19' E 139°39'0 0.0
2015-Feb-20 23:31N 35°19' E 139°39'1 0.8
2015-Feb-20 22:34N 35°19' E 139°40'10 9.6
2015-Feb-20 21:33N 35°10' E 139°45'1313.2
2015-Feb-20 20:33N 35°00' E 139°35'23615.7
2015-Feb-20 05:33N 34°00' E 134°59'2121.5
2015-Feb-20 04:33N 34°22' E 135°01'1919.3
2015-Feb-20 03:33N 34°37' E 135°15'4 3.9
2015-Feb-20 02:29N 34°41' E 135°13'0 0.0
2015-Feb-20 01:29N 34°41' E 135°13'0 0.0
2015-Feb-20 00:29N 34°41' E 135°13'0 0.0
2015-Feb-19 23:29N 34°41' E 135°13'4 4.4
2015-Feb-19 22:33N 34°37' E 135°16'1 1.0
2015-Feb-19 21:30N 34°36' E 135°16'0 0.0
2015-Feb-19 20:24N 34°36' E 135°16'0 0.1
2015-Feb-19 19:30N 34°36' E 135°16'0 0.0
2015-Feb-19 18:30N 34°36' E 135°16'0 0.1
2015-Feb-19 17:30N 34°36' E 135°16'0 0.0
2015-Feb-19 16:30N 34°36' E 135°16'0 0.0
2015-Feb-19 15:30N 34°36' E 135°16'0 0.0
2015-Feb-19 14:24N 34°36' E 135°16'0 0.0
2015-Feb-19 13:30N 34°36' E 135°16'  
Track history (hours):
 
Tides and Currents Weather Stations Pressure Air Temp Water Temp Dewpoint Dewpoint Depression Visibility Wind Speed Wind Dir Waves Ship Positions

Nichioh Maru

Last reported at 2015-Mar-01 12:33 UTC. Time now 2015-Mar-02 11:13 UTC.
Position N 34°60' E 139°35'.

Length 170 m; draft 6.5 m.

Type: Cargo ship. MMSI: 431003232.

Date/timePositionNaut miles runAvg speedWind from/ knotsBaromVisibWave heightAir tempDewpointWater temp
2015-Mar-01 12:33N 34°60' E 139°35'1716.9
2015-Mar-01 11:34N 35°14' E 139°46'1313.2
2015-Mar-01 10:33N 35°27' E 139°46'3 3.1
2015-Mar-01 09:31N 35°30' E 139°46'0 0.0
2015-Mar-01 08:31N 35°30' E 139°46'0 0.0
2015-Mar-01 07:28N 35°30' E 139°46'0 0.0
2015-Mar-01 06:28N 35°30' E 139°46'0 0.0
2015-Mar-01 05:31N 35°30' E 139°46'3 3.3
2015-Mar-01 04:34N 35°29' E 139°42'10 9.9
2015-Mar-01 03:33N 35°19' E 139°43'3 3.0
2015-Mar-01 02:33N 35°19' E 139°39'0 0.0
2015-Mar-01 01:33N 35°19' E 139°39'0 0.0
2015-Mar-01 00:33N 35°19' E 139°39'0 0.0
2015-Feb-28 23:33N 35°19' E 139°39'0 0.0
2015-Feb-28 22:33N 35°19' E 139°39'6 6.0
2015-Feb-28 21:34N 35°17' E 139°46'1211.6
2015-Feb-28 20:33N 35°05' E 139°43'24117.2
2015-Feb-28 06:33N 34°07' E 134°59'2121.3
2015-Feb-28 05:33N 34°28' E 135°02'224 4.7
2015-Feb-26 05:27N 34°60' E 139°32'1618.3
2015-Feb-26 04:34N 35°11' E 139°46'9 9.3
2015-Feb-26 03:33N 35°19' E 139°39'0 0.0
2015-Feb-26 02:32N 35°19' E 139°39'0 0.0
2015-Feb-26 01:32N 35°19' E 139°39'0 0.0
2015-Feb-26 00:32N 35°19' E 139°39'0 0.0
2015-Feb-25 22:15N 35°19' E 139°39'7 9.7
2015-Feb-25 21:31N 35°15' E 139°47'1212.4
2015-Feb-25 20:33N 35°04' E 139°43'1514.6
2015-Feb-25 19:33N 34°55' E 139°29'23017.2
2015-Feb-25 06:12N 33°57' E 134°59'1520.9
2015-Feb-25 05:30N 34°12' E 134°59'1920.1
2015-Feb-25 04:33N 34°30' E 135°02'1211.8
2015-Feb-25 03:33N 34°33' E 134°48'  
2015-Feb-22 23:25N 34°36' E 134°54'1011.3
2015-Feb-22 22:33N 34°34' E 135°06'1414.2
2015-Feb-22 21:33N 34°21' E 135°01'1414.1
2015-Feb-22 20:33N 34°06' E 135°01'229 7.1
2015-Feb-21 12:14N 35°00' E 139°31'1217.9
2015-Feb-21 11:32N 35°07' E 139°43'1212.4
2015-Feb-21 10:34N 35°19' E 139°43'1111.3
2015-Feb-21 09:34N 35°30' E 139°46'0 0.0
2015-Feb-21 08:31N 35°30' E 139°46'0 0.0
2015-Feb-21 07:31N 35°30' E 139°46'0 0.0
2015-Feb-21 06:31N 35°30' E 139°46'0 0.0
2015-Feb-21 05:28N 35°30' E 139°46'4 4.1
2015-Feb-21 04:33N 35°28' E 139°42'8 8.5
2015-Feb-21 03:34N 35°20' E 139°44'4 4.4
2015-Feb-21 02:33N 35°19' E 139°39'0 0.0
2015-Feb-21 01:31N 35°19' E 139°39'0 0.0
2015-Feb-21 00:31N 35°19' E 139°39'0 0.0
2015-Feb-20 23:31N 35°19' E 139°39'1 0.8
2015-Feb-20 22:34N 35°19' E 139°40'10 9.6
2015-Feb-20 21:33N 35°10' E 139°45'1313.2
2015-Feb-20 20:33N 35°00' E 139°35'23615.7
2015-Feb-20 05:33N 34°00' E 134°59'2121.5
2015-Feb-20 04:33N 34°22' E 135°01'1919.3
2015-Feb-20 03:33N 34°37' E 135°15'4 3.9
2015-Feb-20 02:29N 34°41' E 135°13'0 0.0
2015-Feb-20 01:29N 34°41' E 135°13'0 0.0
2015-Feb-20 00:29N 34°41' E 135°13'0 0.0
2015-Feb-19 23:29N 34°41' E 135°13'4 4.4
2015-Feb-19 22:33N 34°37' E 135°16'1 1.0
2015-Feb-19 21:30N 34°36' E 135°16'0 0.0
2015-Feb-19 20:24N 34°36' E 135°16'0 0.1
2015-Feb-19 19:30N 34°36' E 135°16'0 0.0
2015-Feb-19 18:30N 34°36' E 135°16'0 0.1
2015-Feb-19 17:30N 34°36' E 135°16'0 0.0
2015-Feb-19 16:30N 34°36' E 135°16'0 0.0
2015-Feb-19 15:30N 34°36' E 135°16'0 0.0
2015-Feb-19 14:24N 34°36' E 135°16'0 0.0
2015-Feb-19 13:30N 34°36' E 135°16'  

Dump ship's entire track history